sensor_id;sensor_type;location;lat;lon;timestamp;pressure;altitude;pressure_sealevel;temperature;humidity
27144;BME280;14672;50.250;8.312;2023-01-20T00:01:37;98240.69;;;2.05;60.71
27144;BME280;14672;50.250;8.312;2023-01-20T00:04:04;98244.66;;;2.07;59.54
27144;BME280;14672;50.250;8.312;2023-01-20T00:06:30;98239.22;;;1.93;59.90
27144;BME280;14672;50.250;8.312;2023-01-20T00:08:59;98238.38;;;1.96;59.98
27144;BME280;14672;50.250;8.312;2023-01-20T00:11:26;98254.44;;;1.92;59.60
27144;BME280;14672;50.250;8.312;2023-01-20T00:13:54;98252.03;;;1.94;60.06
27144;BME280;14672;50.250;8.312;2023-01-20T00:16:20;98260.06;;;1.88;60.86
27144;BME280;14672;50.250;8.312;2023-01-20T00:18:46;98251.66;;;1.88;60.41
27144;BME280;14672;50.250;8.312;2023-01-20T00:21:13;98266.44;;;1.93;60.66
27144;BME280;14672;50.250;8.312;2023-01-20T00:23:42;98269.69;;;1.87;61.17
27144;BME280;14672;50.250;8.312;2023-01-20T00:26:32;98266.56;;;1.82;60.46
27144;BME280;14672;50.250;8.312;2023-01-20T00:28:57;98272.94;;;1.82;60.10
27144;BME280;14672;50.250;8.312;2023-01-20T00:31:29;98270.63;;;1.74;60.22
27144;BME280;14672;50.250;8.312;2023-01-20T00:33:58;98265.44;;;1.72;60.35
27144;BME280;14672;50.250;8.312;2023-01-20T00:36:28;98271.47;;;1.67;60.19
27144;BME280;14672;50.250;8.312;2023-01-20T00:38:56;98259.56;;;1.60;60.07
27144;BME280;14672;50.250;8.312;2023-01-20T00:41:22;98271.53;;;1.60;60.14
27144;BME280;14672;50.250;8.312;2023-01-20T00:43:48;98268.63;;;1.74;59.43
27144;BME280;14672;50.250;8.312;2023-01-20T00:46:14;98269.97;;;1.59;59.25
27144;BME280;14672;50.250;8.312;2023-01-20T00:48:40;98277.69;;;1.45;59.13
27144;BME280;14672;50.250;8.312;2023-01-20T00:51:07;98282.50;;;1.40;60.06
27144;BME280;14672;50.250;8.312;2023-01-20T00:53:34;98290.06;;;1.43;59.43
27144;BME280;14672;50.250;8.312;2023-01-20T00:56:00;98283.75;;;1.36;59.62
27144;BME280;14672;50.250;8.312;2023-01-20T00:58:25;98287.00;;;1.31;59.28
27144;BME280;14672;50.250;8.312;2023-01-20T01:00:52;98287.47;;;1.22;59.83
27144;BME280;14672;50.250;8.312;2023-01-20T01:03:20;98288.25;;;1.23;59.35
27144;BME280;14672;50.250;8.312;2023-01-20T01:05:46;98284.69;;;1.19;59.43
27144;BME280;14672;50.250;8.312;2023-01-20T01:08:13;98291.88;;;1.16;59.06
27144;BME280;14672;50.250;8.312;2023-01-20T01:10:39;98287.94;;;1.10;59.65
27144;BME280;14672;50.250;8.312;2023-01-20T01:13:06;98288.75;;;1.11;58.95
27144;BME280;14672;50.250;8.312;2023-01-20T01:15:32;98291.94;;;1.09;59.12
27144;BME280;14672;50.250;8.312;2023-01-20T01:17:59;98302.00;;;0.96;59.34
27144;BME280;14672;50.250;8.312;2023-01-20T01:20:26;98296.06;;;0.90;59.52
27144;BME280;14672;50.250;8.312;2023-01-20T01:22:52;98299.63;;;0.98;58.87
27144;BME280;14672;50.250;8.312;2023-01-20T01:25:19;98300.84;;;0.90;59.22
27144;BME280;14672;50.250;8.312;2023-01-20T01:27:45;98309.66;;;0.88;59.05
27144;BME280;14672;50.250;8.312;2023-01-20T01:30:12;98308.84;;;0.88;58.79
27144;BME280;14672;50.250;8.312;2023-01-20T01:32:38;98304.91;;;0.78;59.45
27144;BME280;14672;50.250;8.312;2023-01-20T01:35:04;98315.31;;;0.78;58.71
27144;BME280;14672;50.250;8.312;2023-01-20T01:37:30;98313.69;;;0.80;58.93
27144;BME280;14672;50.250;8.312;2023-01-20T01:39:55;98322.50;;;0.75;58.29
27144;BME280;14672;50.250;8.312;2023-01-20T01:42:25;98320.13;;;0.70;58.13
27144;BME280;14672;50.250;8.312;2023-01-20T01:47:50;98333.44;;;0.38;59.03
27144;BME280;14672;50.250;8.312;2023-01-20T01:50:25;98331.41;;;0.49;58.29
27144;BME280;14672;50.250;8.312;2023-01-20T01:52:53;98341.44;;;0.29;58.37
27144;BME280;14672;50.250;8.312;2023-01-20T01:55:24;98339.84;;;0.31;58.29
27144;BME280;14672;50.250;8.312;2023-01-20T01:57:51;98347.44;;;0.31;58.74
27144;BME280;14672;50.250;8.312;2023-01-20T02:00:19;98347.44;;;0.20;58.90
27144;BME280;14672;50.250;8.312;2023-01-20T02:02:44;98346.25;;;0.25;59.31
27144;BME280;14672;50.250;8.312;2023-01-20T02:05:12;98344.25;;;0.22;59.16
27144;BME280;14672;50.250;8.312;2023-01-20T02:07:39;98357.03;;;0.09;59.11
27144;BME280;14672;50.250;8.312;2023-01-20T02:10:07;98353.47;;;0.12;58.96
27144;BME280;14672;50.250;8.312;2023-01-20T02:12:33;98358.25;;;0.08;59.36
27144;BME280;14672;50.250;8.312;2023-01-20T02:15:01;98359.47;;;0.07;58.83
27144;BME280;14672;50.250;8.312;2023-01-20T02:17:44;98352.25;;;0.13;57.78
27144;BME280;14672;50.250;8.312;2023-01-20T02:42:15;98381.81;;;-0.22;58.29
27144;BME280;14672;50.250;8.312;2023-01-20T02:45:30;98385.81;;;-0.30;58.51
27144;BME280;14672;50.250;8.312;2023-01-20T02:48:39;98391.38;;;-0.37;58.12
27144;BME280;14672;50.250;8.312;2023-01-20T02:51:26;98384.19;;;-0.38;58.78
27144;BME280;14672;50.250;8.312;2023-01-20T02:54:03;98388.19;;;-0.35;58.33
27144;BME280;14672;50.250;8.312;2023-01-20T02:56:31;98391.38;;;-0.37;58.48
27144;BME280;14672;50.250;8.312;2023-01-20T02:59:08;98393.38;;;-0.41;58.52
27144;BME280;14672;50.250;8.312;2023-01-20T03:01:41;98394.56;;;-0.45;58.14
27144;BME280;14672;50.250;8.312;2023-01-20T03:04:11;98398.97;;;-0.44;58.53
27144;BME280;14672;50.250;8.312;2023-01-20T03:06:44;98408.50;;;-0.42;59.43
27144;BME280;14672;50.250;8.312;2023-01-20T03:09:16;98415.31;;;-0.22;59.19
27144;BME280;14672;50.250;8.312;2023-01-20T03:11:52;98403.75;;;-0.17;59.45
27144;BME280;14672;50.250;8.312;2023-01-20T03:14:20;98404.94;;;-0.14;60.05
27144;BME280;14672;50.250;8.312;2023-01-20T03:16:47;98419.69;;;-0.07;60.45
27144;BME280;14672;50.250;8.312;2023-01-20T03:19:15;98412.50;;;-0.08;60.68
27144;BME280;14672;50.250;8.312;2023-01-20T03:21:42;98418.09;;;0.07;60.77
27144;BME280;14672;50.250;8.312;2023-01-20T03:24:08;98409.72;;;0.10;60.43
27144;BME280;14672;50.250;8.312;2023-01-20T03:26:34;98410.53;;;0.00;60.87
27144;BME280;14672;50.250;8.312;2023-01-20T03:29:06;98414.88;;;0.08;60.64
27144;BME280;14672;50.250;8.312;2023-01-20T03:31:42;98416.09;;;0.14;61.16
27144;BME280;14672;50.250;8.312;2023-01-20T03:34:13;98428.06;;;0.15;61.32
27144;BME280;14672;50.250;8.312;2023-01-20T03:36:43;98419.28;;;0.13;61.02
27144;BME280;14672;50.250;8.312;2023-01-20T03:39:10;98426.44;;;0.17;60.97
27144;BME280;14672;50.250;8.312;2023-01-20T03:53:29;98436.03;;;0.20;60.77
27144;BME280;14672;50.250;8.312;2023-01-20T03:58:32;98442.41;;;0.20;60.47
27144;BME280;14672;50.250;8.312;2023-01-20T04:01:00;98454.38;;;0.21;61.07
27144;BME280;14672;50.250;8.312;2023-01-20T04:03:32;98453.19;;;0.29;61.09
27144;BME280;14672;50.250;8.312;2023-01-20T04:06:03;98457.56;;;0.37;61.31
27144;BME280;14672;50.250;8.312;2023-01-20T04:08:35;98465.53;;;0.42;61.44
27144;BME280;14672;50.250;8.312;2023-01-20T04:11:07;98463.13;;;0.44;62.13
27144;BME280;14672;50.250;8.312;2023-01-20T04:13:33;98462.34;;;0.51;61.95
27144;BME280;14672;50.250;8.312;2023-01-20T04:16:02;98469.50;;;0.62;61.99
27144;BME280;14672;50.250;8.312;2023-01-20T04:18:28;98467.09;;;0.57;61.58
27144;BME280;14672;50.250;8.312;2023-01-20T04:21:00;98463.09;;;0.62;61.97
27144;BME280;14672;50.250;8.312;2023-01-20T04:23:48;98461.88;;;0.73;62.24
27144;BME280;14672;50.250;8.312;2023-01-20T04:26:17;98461.44;;;0.85;62.30
27144;BME280;14672;50.250;8.312;2023-01-20T04:28:42;98464.25;;;0.85;62.24
27144;BME280;14672;50.250;8.312;2023-01-20T04:31:08;98463.03;;;0.93;62.07
27144;BME280;14672;50.250;8.312;2023-01-20T04:33:37;98459.84;;;0.95;62.09
27144;BME280;14672;50.250;8.312;2023-01-20T04:36:03;98461.84;;;0.91;62.55
27144;BME280;14672;50.250;8.312;2023-01-20T04:38:29;98467.38;;;1.05;62.18
27144;BME280;14672;50.250;8.312;2023-01-20T04:40:55;98464.19;;;1.00;62.37
27144;BME280;14672;50.250;8.312;2023-01-20T04:43:21;98462.97;;;1.08;62.77
27144;BME280;14672;50.250;8.312;2023-01-20T04:45:46;98460.59;;;1.06;63.07
27144;BME280;14672;50.250;8.312;2023-01-20T04:48:12;98466.91;;;1.17;62.96
27144;BME280;14672;50.250;8.312;2023-01-20T04:50:39;98460.91;;;1.26;62.99
27144;BME280;14672;50.250;8.312;2023-01-20T04:53:07;98463.69;;;1.26;62.76
27144;BME280;14672;50.250;8.312;2023-01-20T04:55:35;98460.47;;;1.31;63.03
27144;BME280;14672;50.250;8.312;2023-01-20T04:58:00;98472.03;;;1.33;62.94
27144;BME280;14672;50.250;8.312;2023-01-20T05:00:26;98476.41;;;1.41;62.64
27144;BME280;14672;50.250;8.312;2023-01-20T05:02:56;98475.22;;;1.42;62.61
27144;BME280;14672;50.250;8.312;2023-01-20T05:05:23;98479.59;;;1.43;62.91
27144;BME280;14672;50.250;8.312;2023-01-20T05:07:51;98483.97;;;1.48;62.71
27144;BME280;14672;50.250;8.312;2023-01-20T05:10:18;98480.75;;;1.49;62.83
27144;BME280;14672;50.250;8.312;2023-01-20T05:12:44;98492.34;;;1.55;63.10
27144;BME280;14672;50.250;8.312;2023-01-20T05:15:10;98489.09;;;1.60;62.73
27144;BME280;14672;50.250;8.312;2023-01-20T05:17:36;98493.91;;;1.59;63.24
27144;BME280;14672;50.250;8.312;2023-01-20T05:20:02;98497.06;;;1.65;62.87
27144;BME280;14672;50.250;8.312;2023-01-20T05:22:28;98495.44;;;1.67;63.09
27144;BME280;14672;50.250;8.312;2023-01-20T05:24:58;98501.84;;;1.68;63.14
27144;BME280;14672;50.250;8.312;2023-01-20T05:27:24;98504.19;;;1.76;63.30
27144;BME280;14672;50.250;8.312;2023-01-20T05:29:50;98501.38;;;1.80;63.58
27144;BME280;14672;50.250;8.312;2023-01-20T05:32:16;98499.78;;;1.82;63.91
27144;BME280;14672;50.250;8.312;2023-01-20T05:34:42;98494.16;;;1.86;63.77
27144;BME280;14672;50.250;8.312;2023-01-20T05:37:07;98508.13;;;1.89;63.57
27144;BME280;14672;50.250;8.312;2023-01-20T05:39:33;98510.50;;;1.95;63.56
27144;BME280;14672;50.250;8.312;2023-01-20T05:42:00;98511.28;;;1.95;63.63
27144;BME280;14672;50.250;8.312;2023-01-20T05:44:26;98511.69;;;1.97;63.61
27144;BME280;14672;50.250;8.312;2023-01-20T05:46:52;98517.25;;;2.01;63.68
27144;BME280;14672;50.250;8.312;2023-01-20T05:49:18;98522.41;;;2.09;63.80
27144;BME280;14672;50.250;8.312;2023-01-20T05:51:43;98524.03;;;2.03;63.61
27144;BME280;14672;50.250;8.312;2023-01-20T05:54:09;98532.00;;;2.08;64.07
27144;BME280;14672;50.250;8.312;2023-01-20T05:56:35;98531.94;;;2.15;63.75
27144;BME280;14672;50.250;8.312;2023-01-20T05:59:01;98527.91;;;2.20;63.77
27144;BME280;14672;50.250;8.312;2023-01-20T06:01:26;98538.31;;;2.19;64.50
27144;BME280;14672;50.250;8.312;2023-01-20T06:03:52;98534.34;;;2.17;64.33
27144;BME280;14672;50.250;8.312;2023-01-20T06:06:18;98539.94;;;2.20;64.23
27144;BME280;14672;50.250;8.312;2023-01-20T06:08:44;98542.75;;;2.17;63.97
27144;BME280;14672;50.250;8.312;2023-01-20T06:11:12;98545.13;;;2.22;64.19
27144;BME280;14672;50.250;8.312;2023-01-20T06:13:39;98555.53;;;2.21;63.95
27144;BME280;14672;50.250;8.312;2023-01-20T06:16:05;98557.13;;;2.26;64.35
27144;BME280;14672;50.250;8.312;2023-01-20T06:18:32;98557.06;;;2.33;64.13
27144;BME280;14672;50.250;8.312;2023-01-20T06:20:58;98561.88;;;2.29;64.20
27144;BME280;14672;50.250;8.312;2023-01-20T06:23:25;98559.06;;;2.32;64.37
27144;BME280;14672;50.250;8.312;2023-01-20T06:26:03;98562.63;;;2.36;64.50
27144;BME280;14672;50.250;8.312;2023-01-20T06:28:29;98560.63;;;2.37;64.86
27144;BME280;14672;50.250;8.312;2023-01-20T06:31:07;98556.63;;;2.38;64.90
27144;BME280;14672;50.250;8.312;2023-01-20T06:33:33;98561.00;;;2.39;64.92
27144;BME280;14672;50.250;8.312;2023-01-20T06:36:00;98565.78;;;2.46;64.45
27144;BME280;14672;50.250;8.312;2023-01-20T06:38:30;98561.34;;;2.48;64.74
27144;BME280;14672;50.250;8.312;2023-01-20T06:40:58;98563.41;;;2.41;64.96
27144;BME280;14672;50.250;8.312;2023-01-20T06:43:24;98570.19;;;2.47;64.70
27144;BME280;14672;50.250;8.312;2023-01-20T06:45:50;98563.75;;;2.50;64.54
27144;BME280;14672;50.250;8.312;2023-01-20T06:48:16;98565.69;;;2.56;64.33
27144;BME280;14672;50.250;8.312;2023-01-20T06:50:42;98578.53;;;2.54;64.20
27144;BME280;14672;50.250;8.312;2023-01-20T06:53:07;98580.13;;;2.51;64.55
27144;BME280;14672;50.250;8.312;2023-01-20T06:55:33;98579.72;;;2.53;64.94
27144;BME280;14672;50.250;8.312;2023-01-20T06:57:59;98580.91;;;2.55;64.71
27144;BME280;14672;50.250;8.312;2023-01-20T07:00:25;98578.94;;;2.52;64.61
27144;BME280;14672;50.250;8.312;2023-01-20T07:02:50;98578.50;;;2.57;65.10
27144;BME280;14672;50.250;8.312;2023-01-20T07:05:16;98583.72;;;2.59;64.82
27144;BME280;14672;50.250;8.312;2023-01-20T07:07:45;98589.75;;;2.54;65.12
27144;BME280;14672;50.250;8.312;2023-01-20T07:10:12;98583.72;;;2.55;64.93
27144;BME280;14672;50.250;8.312;2023-01-20T07:12:37;98592.13;;;2.55;64.65
27144;BME280;14672;50.250;8.312;2023-01-20T07:15:04;98593.34;;;2.54;64.82
27144;BME280;14672;50.250;8.312;2023-01-20T07:17:30;98592.53;;;2.57;64.51
27144;BME280;14672;50.250;8.312;2023-01-20T07:19:55;98594.13;;;2.58;64.61
27144;BME280;14672;50.250;8.312;2023-01-20T07:22:21;98602.09;;;2.60;64.23
27144;BME280;14672;50.250;8.312;2023-01-20T07:24:47;98599.31;;;2.56;64.42
27144;BME280;14672;50.250;8.312;2023-01-20T07:27:12;98610.94;;;2.58;64.38
27144;BME280;14672;50.250;8.312;2023-01-20T07:29:40;98614.16;;;2.57;63.81
27144;BME280;14672;50.250;8.312;2023-01-20T07:32:06;98616.16;;;2.56;63.72
27144;BME280;14672;50.250;8.312;2023-01-20T07:34:32;98622.56;;;2.57;64.18
27144;BME280;14672;50.250;8.312;2023-01-20T07:36:58;98627.81;;;2.48;64.02
27144;BME280;14672;50.250;8.312;2023-01-20T07:39:27;98631.00;;;2.53;64.44
27144;BME280;14672;50.250;8.312;2023-01-20T07:41:53;98627.41;;;2.53;64.09
27144;BME280;14672;50.250;8.312;2023-01-20T07:44:18;98639.88;;;2.45;63.27
27144;BME280;14672;50.250;8.312;2023-01-20T07:46:44;98643.38;;;2.56;64.00
27144;BME280;14672;50.250;8.312;2023-01-20T07:49:10;98643.75;;;2.61;63.78
27144;BME280;14672;50.250;8.312;2023-01-20T07:51:36;98641.34;;;2.63;64.05
27144;BME280;14672;50.250;8.312;2023-01-20T07:54:02;98644.59;;;2.58;63.66
27144;BME280;14672;50.250;8.312;2023-01-20T07:56:29;98646.19;;;2.56;63.51
27144;BME280;14672;50.250;8.312;2023-01-20T07:58:55;98648.25;;;2.48;62.97
27144;BME280;14672;50.250;8.312;2023-01-20T08:01:28;98647.91;;;2.43;63.27
27144;BME280;14672;50.250;8.312;2023-01-20T08:03:54;98649.50;;;2.40;63.02
27144;BME280;14672;50.250;8.312;2023-01-20T08:06:24;98654.28;;;2.43;62.69
27144;BME280;14672;50.250;8.312;2023-01-20T08:08:51;98651.97;;;2.34;62.46
27144;BME280;14672;50.250;8.312;2023-01-20T08:11:20;98665.63;;;2.22;62.00
27144;BME280;14672;50.250;8.312;2023-01-20T08:13:46;98665.97;;;2.27;62.12
27144;BME280;14672;50.250;8.312;2023-01-20T08:16:14;98668.75;;;2.31;62.66
27144;BME280;14672;50.250;8.312;2023-01-20T08:18:41;98670.41;;;2.25;62.56
27144;BME280;14672;50.250;8.312;2023-01-20T08:21:23;98680.84;;;2.21;62.53
27144;BME280;14672;50.250;8.312;2023-01-20T08:23:50;98674.88;;;2.12;62.51
27144;BME280;14672;50.250;8.312;2023-01-20T08:26:16;98684.84;;;2.20;62.61
27144;BME280;14672;50.250;8.312;2023-01-20T08:28:44;98684.06;;;2.23;62.94
27144;BME280;14672;50.250;8.312;2023-01-20T08:31:16;98690.44;;;2.20;63.26
27144;BME280;14672;50.250;8.312;2023-01-20T08:33:43;98694.47;;;2.22;63.17
27144;BME280;14672;50.250;8.312;2023-01-20T08:36:17;98693.22;;;2.27;63.34
27144;BME280;14672;50.250;8.312;2023-01-20T08:38:45;98696.00;;;2.34;63.36
27144;BME280;14672;50.250;8.312;2023-01-20T08:41:18;98696.00;;;2.34;63.79
27144;BME280;14672;50.250;8.312;2023-01-20T08:43:45;98699.19;;;2.32;63.38
27144;BME280;14672;50.250;8.312;2023-01-20T08:46:14;98702.41;;;2.31;63.63
27144;BME280;14672;50.250;8.312;2023-01-20T08:48:41;98701.63;;;2.30;63.41
27144;BME280;14672;50.250;8.312;2023-01-20T08:51:11;98703.97;;;2.35;63.71
27144;BME280;14672;50.250;8.312;2023-01-20T08:53:39;98715.97;;;2.43;63.41
27144;BME280;14672;50.250;8.312;2023-01-20T08:56:06;98711.84;;;2.65;63.77
27144;BME280;14672;50.250;8.312;2023-01-20T08:58:32;98697.09;;;3.91;60.41
27144;BME280;14672;50.250;8.312;2023-01-20T09:00:58;98704.28;;;3.96;59.41
27144;BME280;14672;50.250;8.312;2023-01-20T09:03:25;98705.59;;;4.21;58.69
27144;BME280;14672;50.250;8.312;2023-01-20T09:05:51;98706.72;;;3.94;59.31
27144;BME280;14672;50.250;8.312;2023-01-20T09:08:19;98709.63;;;4.81;57.74
27144;BME280;14672;50.250;8.312;2023-01-20T09:10:45;98707.41;;;5.19;56.05
27144;BME280;14672;50.250;8.312;2023-01-20T09:13:11;98711.25;;;5.05;56.23
27144;BME280;14672;50.250;8.312;2023-01-20T09:15:38;98702.47;;;5.73;54.99
27144;BME280;14672;50.250;8.312;2023-01-20T09:18:04;98699.41;;;6.46;53.67
27144;BME280;14672;50.250;8.312;2023-01-20T09:20:30;98691.22;;;6.72;53.34
27144;BME280;14672;50.250;8.312;2023-01-20T09:23:00;98692.91;;;6.85;52.56
27144;BME280;14672;50.250;8.312;2023-01-20T09:25:27;98695.50;;;6.60;53.48
27144;BME280;14672;50.250;8.312;2023-01-20T09:27:53;98707.59;;;6.60;53.71
27144;BME280;14672;50.250;8.312;2023-01-20T09:30:18;98692.69;;;7.12;52.28
27144;BME280;14672;50.250;8.312;2023-01-20T09:32:44;98693.78;;;6.82;53.03
27144;BME280;14672;50.250;8.312;2023-01-20T09:35:10;98701.75;;;6.12;55.28
27144;BME280;14672;50.250;8.312;2023-01-20T09:37:36;98695.03;;;5.83;55.59
27144;BME280;14672;50.250;8.312;2023-01-20T09:40:55;98716.00;;;5.35;57.50
27144;BME280;14672;50.250;8.312;2023-01-20T09:47:28;98708.22;;;5.19;59.61
27144;BME280;14672;50.250;8.312;2023-01-20T09:53:36;98710.47;;;5.75;58.73
27144;BME280;14672;50.250;8.312;2023-01-20T09:56:16;98705.03;;;5.64;59.36
27144;BME280;14672;50.250;8.312;2023-01-20T09:59:19;98706.31;;;5.83;59.64
27144;BME280;14672;50.250;8.312;2023-01-20T10:01:53;98710.13;;;5.96;59.07
27144;BME280;14672;50.250;8.312;2023-01-20T10:04:47;98714.47;;;6.20;58.38
27144;BME280;14672;50.250;8.312;2023-01-20T10:10:13;98708.19;;;6.52;58.23
27144;BME280;14672;50.250;8.312;2023-01-20T10:12:49;98716.78;;;6.65;57.09
27144;BME280;14672;50.250;8.312;2023-01-20T10:15:34;98715.81;;;7.07;56.83
27144;BME280;14672;50.250;8.312;2023-01-20T10:21:19;98718.09;;;7.61;55.96
27144;BME280;14672;50.250;8.312;2023-01-20T10:23:57;98714.75;;;7.82;55.69
27144;BME280;14672;50.250;8.312;2023-01-20T10:26:52;98707.88;;;8.12;54.18
27144;BME280;14672;50.250;8.312;2023-01-20T10:32:01;98704.63;;;8.42;53.83
27144;BME280;14672;50.250;8.312;2023-01-20T10:34:36;98705.38;;;8.71;53.27
27144;BME280;14672;50.250;8.312;2023-01-20T10:37:08;98708.34;;;8.93;52.49
27144;BME280;14672;50.250;8.312;2023-01-20T10:42:35;98698.56;;;9.44;51.12
27144;BME280;14672;50.250;8.312;2023-01-20T10:45:02;98690.34;;;9.72;50.52
27144;BME280;14672;50.250;8.312;2023-01-20T10:50:29;98683.94;;;10.27;49.62
27144;BME280;14672;50.250;8.312;2023-01-20T10:56:52;98682.91;;;10.00;47.53
27144;BME280;14672;50.250;8.312;2023-01-20T10:59:52;98682.91;;;9.53;47.75
27144;BME280;14672;50.250;8.312;2023-01-20T11:02:28;98690.75;;;9.49;48.96
27144;BME280;14672;50.250;8.312;2023-01-20T11:05:13;98696.09;;;9.21;49.78
27144;BME280;14672;50.250;8.312;2023-01-20T11:07:42;98697.13;;;8.89;49.56
27144;BME280;14672;50.250;8.312;2023-01-20T11:10:22;98693.59;;;8.85;49.84
27144;BME280;14672;50.250;8.312;2023-01-20T11:12:55;98704.09;;;8.72;49.84
27144;BME280;14672;50.250;8.312;2023-01-20T11:15:28;98695.88;;;8.36;49.75
27144;BME280;14672;50.250;8.312;2023-01-20T11:20:49;98691.91;;;8.34;51.11
27144;BME280;14672;50.250;8.312;2023-01-20T11:23:40;98697.09;;;8.77;50.90
27144;BME280;14672;50.250;8.312;2023-01-20T11:28:57;98698.78;;;8.62;51.40
27144;BME280;14672;50.250;8.312;2023-01-20T11:31:50;98693.69;;;8.69;51.67
27144;BME280;14672;50.250;8.312;2023-01-20T11:34:29;98698.78;;;8.62;52.06
27144;BME280;14672;50.250;8.312;2023-01-20T11:39:57;98692.94;;;9.07;51.80
27144;BME280;14672;50.250;8.312;2023-01-20T11:42:41;98695.19;;;9.24;51.47
27144;BME280;14672;50.250;8.312;2023-01-20T11:45:23;98700.88;;;8.99;51.49
27144;BME280;14672;50.250;8.312;2023-01-20T11:56:13;98708.59;;;8.57;52.34
27144;BME280;14672;50.250;8.312;2023-01-20T11:59:25;98706.75;;;8.38;52.30
27144;BME280;14672;50.250;8.312;2023-01-20T12:02:20;98712.03;;;8.07;53.21
27144;BME280;14672;50.250;8.312;2023-01-20T12:07:43;98705.22;;;8.04;53.30
27144;BME280;14672;50.250;8.312;2023-01-20T12:10:21;98708.22;;;8.14;52.75
27144;BME280;14672;50.250;8.312;2023-01-20T12:12:59;98702.78;;;7.90;53.38
27144;BME280;14672;50.250;8.312;2023-01-20T12:15:40;98712.28;;;7.84;53.70
27144;BME280;14672;50.250;8.312;2023-01-20T12:18:34;98714.94;;;7.59;53.72
27144;BME280;14672;50.250;8.312;2023-01-20T12:21:15;98720.94;;;7.61;54.50
27144;BME280;14672;50.250;8.312;2023-01-20T12:24:15;98720.16;;;7.44;54.84
27144;BME280;14672;50.250;8.312;2023-01-20T12:26:43;98723.94;;;7.37;54.74
27144;BME280;14672;50.250;8.312;2023-01-20T12:29:39;98724.66;;;7.41;55.11
27144;BME280;14672;50.250;8.312;2023-01-20T12:32:09;98722.81;;;7.35;55.20
27144;BME280;14672;50.250;8.312;2023-01-20T12:34:35;98729.41;;;7.12;55.47
27144;BME280;14672;50.250;8.312;2023-01-20T12:42:46;98735.72;;;6.84;56.41
27144;BME280;14672;50.250;8.312;2023-01-20T12:45:46;98737.44;;;6.78;56.24
27144;BME280;14672;50.250;8.312;2023-01-20T12:52:02;98738.38;;;6.91;56.22
27144;BME280;14672;50.250;8.312;2023-01-20T12:55:04;98737.69;;;6.67;56.86
27144;BME280;14672;50.250;8.312;2023-01-20T12:57:58;98741.97;;;6.55;57.00
27144;BME280;14672;50.250;8.312;2023-01-20T13:09:30;98736.56;;;6.45;58.02
27144;BME280;14672;50.250;8.312;2023-01-20T13:12:40;98733.13;;;6.34;58.09
27144;BME280;14672;50.250;8.312;2023-01-20T13:20:25;98754.78;;;6.21;59.05
27144;BME280;14672;50.250;8.312;2023-01-20T13:22:53;98748.03;;;6.34;58.42
27144;BME280;14672;50.250;8.312;2023-01-20T13:25:21;98748.31;;;6.20;58.29
27144;BME280;14672;50.250;8.312;2023-01-20T13:27:49;98741.97;;;6.16;58.56
27144;BME280;14672;50.250;8.312;2023-01-20T13:30:41;98747.28;;;6.10;59.02
27144;BME280;14672;50.250;8.312;2023-01-20T13:33:40;98755.34;;;6.12;58.84
27144;BME280;14672;50.250;8.312;2023-01-20T13:36:20;98746.94;;;6.08;59.02
27144;BME280;14672;50.250;8.312;2023-01-20T13:38:49;98749.31;;;6.10;58.98
27144;BME280;14672;50.250;8.312;2023-01-20T13:41:50;98748.41;;;6.17;59.27
27144;BME280;14672;50.250;8.312;2023-01-20T13:44:33;98754.22;;;6.06;59.88
27144;BME280;14672;50.250;8.312;2023-01-20T13:47:00;98750.78;;;6.18;59.54
27144;BME280;14672;50.250;8.312;2023-01-20T13:49:51;98761.63;;;6.20;59.73
27144;BME280;14672;50.250;8.312;2023-01-20T14:01:02;98757.06;;;6.26;59.50
27144;BME280;14672;50.250;8.312;2023-01-20T14:03:38;98751.97;;;6.40;59.25
27144;BME280;14672;50.250;8.312;2023-01-20T14:06:18;98753.19;;;6.39;58.97
27144;BME280;14672;50.250;8.312;2023-01-20T14:08:48;98757.94;;;6.42;58.67
27144;BME280;14672;50.250;8.312;2023-01-20T14:13:52;98767.13;;;6.46;58.75
27144;BME280;14672;50.250;8.312;2023-01-20T14:16:38;98766.00;;;6.44;58.64
27144;BME280;14672;50.250;8.312;2023-01-20T14:19:23;98772.19;;;6.35;59.28
27144;BME280;14672;50.250;8.312;2023-01-20T14:21:58;98762.38;;;6.43;58.66
27144;BME280;14672;50.250;8.312;2023-01-20T14:24:42;98769.72;;;6.37;58.92
27144;BME280;14672;50.250;8.312;2023-01-20T14:27:28;98765.69;;;6.38;58.67
27144;BME280;14672;50.250;8.312;2023-01-20T14:30:24;98774.94;;;6.19;59.04
27144;BME280;14672;50.250;8.312;2023-01-20T14:32:51;98768.13;;;6.17;58.97
27144;BME280;14672;50.250;8.312;2023-01-20T14:35:30;98771.88;;;6.10;59.61
27144;BME280;14672;50.250;8.312;2023-01-20T14:37:56;98769.44;;;6.12;59.60
27144;BME280;14672;50.250;8.312;2023-01-20T14:40:32;98766.88;;;6.18;59.51
27144;BME280;14672;50.250;8.312;2023-01-20T14:43:20;98770.59;;;6.14;59.48
27144;BME280;14672;50.250;8.312;2023-01-20T14:45:49;98769.69;;;5.98;59.71
27144;BME280;14672;50.250;8.312;2023-01-20T14:48:20;98779.97;;;6.08;59.25
27144;BME280;14672;50.250;8.312;2023-01-20T14:50:49;98776.19;;;5.95;59.91
27144;BME280;14672;50.250;8.312;2023-01-20T14:53:19;98784.22;;;5.96;60.06
27144;BME280;14672;50.250;8.312;2023-01-20T14:56:01;98783.03;;;5.94;59.77
27144;BME280;14672;50.250;8.312;2023-01-20T14:58:27;98799.59;;;5.92;60.26
27144;BME280;14672;50.250;8.312;2023-01-20T15:01:01;98798.91;;;5.84;60.76
27144;BME280;14672;50.250;8.312;2023-01-20T15:03:29;98809.66;;;5.93;60.20
27144;BME280;14672;50.250;8.312;2023-01-20T15:11:24;98813.88;;;5.81;60.28
27144;BME280;14672;50.250;8.312;2023-01-20T15:16:28;98812.94;;;5.64;61.29
27144;BME280;14672;50.250;8.312;2023-01-20T15:21:42;98813.47;;;5.79;60.44
27144;BME280;14672;50.250;8.312;2023-01-20T15:24:22;98822.41;;;5.74;61.11
27144;BME280;14672;50.250;8.312;2023-01-20T15:26:51;98820.88;;;5.69;61.18
27144;BME280;14672;50.250;8.312;2023-01-20T15:29:34;98826.03;;;5.75;60.98
27144;BME280;14672;50.250;8.312;2023-01-20T15:32:08;98816.91;;;5.67;61.54
27144;BME280;14672;50.250;8.312;2023-01-20T15:34:35;98824.13;;;5.68;61.71
27144;BME280;14672;50.250;8.312;2023-01-20T15:37:00;98832.94;;;5.70;61.27
27144;BME280;14672;50.250;8.312;2023-01-20T15:39:27;98829.09;;;5.60;61.70
27144;BME280;14672;50.250;8.312;2023-01-20T15:41:58;98828.81;;;5.51;62.39
27144;BME280;14672;50.250;8.312;2023-01-20T15:44:25;98835.31;;;5.48;62.44